createdAt,value
2023-06-30T00:00:04.633Z,1001.66
2023-06-30T00:01:04.637Z,1001.66
2023-06-30T00:02:04.620Z,1001.65
2023-06-30T00:03:04.729Z,1001.63
2023-06-30T00:04:04.692Z,1001.61
2023-06-30T00:05:04.691Z,1001.60
2023-06-30T00:06:04.581Z,1001.62
2023-06-30T00:07:04.567Z,1001.65
2023-06-30T00:08:04.574Z,1001.66
2023-06-30T00:09:04.541Z,1001.65
2023-06-30T00:10:04.560Z,1001.65
2023-06-30T00:11:04.532Z,1001.64
2023-06-30T00:12:04.485Z,1001.63
2023-06-30T00:13:04.473Z,1001.62
2023-06-30T00:14:04.498Z,1001.60
2023-06-30T00:15:04.484Z,1001.59
2023-06-30T00:16:04.474Z,1001.61
2023-06-30T00:17:04.455Z,1001.63
2023-06-30T00:18:04.470Z,1001.65
2023-06-30T00:19:04.410Z,1001.66
2023-06-30T00:20:04.425Z,1001.66
2023-06-30T00:21:04.410Z,1001.65
2023-06-30T00:22:04.392Z,1001.63
2023-06-30T00:23:04.401Z,1001.62
2023-06-30T00:24:04.360Z,1001.62
2023-06-30T00:25:04.370Z,1001.61
2023-06-30T00:26:04.362Z,1001.59
2023-06-30T00:27:04.336Z,1001.59
2023-06-30T00:28:04.330Z,1001.58
2023-06-30T00:29:04.319Z,1001.58
2023-06-30T00:30:04.323Z,1001.59
2023-06-30T00:31:04.333Z,1001.59
2023-06-30T00:32:04.290Z,1001.58
2023-06-30T00:33:04.361Z,1001.57
2023-06-30T00:34:04.282Z,1001.55
2023-06-30T00:35:04.242Z,1001.53
2023-06-30T00:36:04.270Z,1001.51
2023-06-30T00:37:04.279Z,1001.51
2023-06-30T00:38:04.271Z,1001.51
2023-06-30T00:39:04.221Z,1001.49
2023-06-30T00:40:04.209Z,1001.48
2023-06-30T00:41:04.237Z,1001.47
2023-06-30T01:03:41.814Z,1001.71
2023-06-30T01:04:47.219Z,1001.71
2023-06-30T01:05:49.167Z,1001.70
2023-06-30T01:06:40.125Z,1001.68
2023-06-30T01:07:40.289Z,1001.66
2023-06-30T01:08:40.142Z,1001.64
2023-06-30T01:09:41.092Z,1001.62
2023-06-30T01:10:40.035Z,1001.60
2023-06-30T01:11:40.094Z,1001.57
2023-06-30T01:12:40.111Z,1001.55
2023-06-30T01:13:41.909Z,1001.55
2023-06-30T01:14:40.066Z,1001.55
2023-06-30T01:15:40.604Z,1001.54
2023-06-30T01:16:50.563Z,1001.55
2023-06-30T01:17:40.060Z,1001.54
2023-06-30T01:18:41.194Z,1001.54
2023-06-30T01:19:40.056Z,1001.54
2023-06-30T01:20:41.959Z,1001.54
2023-06-30T01:21:40.023Z,1001.54
2023-06-30T01:22:40.202Z,1001.54
2023-06-30T01:23:39.999Z,1001.54
2023-06-30T01:24:41.488Z,1001.53
2023-06-30T01:25:39.990Z,1001.50
2023-06-30T01:26:40.026Z,1001.48
2023-06-30T01:27:39.920Z,1001.45
2023-06-30T01:29:40.679Z,1001.43
2023-06-30T01:29:46.142Z,1001.40
2023-06-30T01:31:01.765Z,1001.37
2023-06-30T01:31:48.123Z,1001.34
